Border Field (334) Station Data

Red Flag Warning: No
Fire Weather Zone: 243
SDGE Region: Metro
Lat/Lon: 32.542/-117.097

Observations

Time Wind Speed/Gust Temp(F) RH Fuel Moist Fuel Temp(F) Dewpt(F) Tmax(F) Tmin(F) Accum Precip 10-min Precip SL Press(mb)
2/27 11:40pm 258 14 G 20 52° 97% - - 52° 57.3° 51.1° - - -
2/27 11:20pm 254 11 G 14 53° 97% - - 52° 57.3° 51.1° - - -
2/27 11:10pm 249 8 G 12 53° 97% - - 52° 57.3° 51.1° - - -
2/27 11:00pm 257 8 G 11 53° 97% - - 52° 57.3° 51.1° - - -
2/27 10:50pm 267 10 G 14 53° 97% - - 52° 57.3° 51.1° - - -
2/27 10:40pm 270 12 G 19 53° 96% - - 52° 57.3° 51.1° - - -
2/27 10:30pm 277 18 G 26 53° 96% - - 52° 57.3° 51.1° - - -
2/27 10:20pm 285 18 G 26 54° 95% - - 53° 57.3° 51.1° - - -
2/27 10:10pm 229 16 G 24 56° 93% - - 55° 57.3° 51.1° - - -
2/27 10:00pm 205 13 G 21 56° 93% - - 54° 57° 51.1° - - -
2/27 9:50pm 202 14 G 23 56° 93% - - 54° 57° 51.1° - - -
2/27 9:40pm 199 13 G 21 56° 92% - - 54° 57° 51.1° - - -
2/27 9:30pm 195 14 G 21 56° 92% - - 53° 57° 51.1° - - -
2/27 9:20pm 195 13 G 21 56° 91% - - 53° 57° 51.1° - - -
2/27 9:10pm 193 13 G 24 56° 91% - - 53° 57° 51.1° - - -
2/27 9:00pm 188 16 G 25 56° 90% - - 53° 57° 51.1° - - -
2/27 8:50pm 187 16 G 23 56° 91% - - 53° 57° 51.1° - - -
2/27 8:40pm 189 16 G 25 56° 92% - - 53° 57° 51.1° - - -
2/27 8:30pm 187 17 G 25 56° 92% - - 53° 57° 51.1° - - -
2/27 8:20pm 187 18 G 27 56° 92% - - 53° 57° 51.1° - - -
2/27 8:10pm 190 16 G 23 56° 91% - - 53° 57° 51.1° - - -
2/27 8:00pm 188 16 G 28 56° 92% - - 53° 57° 51.1° - - -
2/27 7:50pm 188 16 G 27 55° 92% - - 53° 57° 51.1° - - -
2/27 7:40pm 187 18 G 26 55° 92% - - 53° 57° 51.1° - - -
2/27 7:30pm 186 19 G 30 55° 92% - - 53° 57° 51.1° - - -
2/27 7:20pm 187 18 G 30 55° 93% - - 53° 57° 51.1° - - -
2/27 7:10pm 187 19 G 29 55° 93% - - 53° 57° 51.1° - - -
2/27 7:00pm 186 19 G 28 55° 93% - - 53° 57° 51.1° - - -
2/27 6:50pm 185 19 G 27 56° 94% - - 54° 57° 51.1° - - -
2/27 6:40pm 188 15 G 26 56° 94% - - 54° 57° 51.1° - - -
2/27 6:30pm 186 18 G 28 56° 94% - - 54° 57° 51.1° - - -
2/27 6:20pm 189 17 G 28 56° 94% - - 54° 57° 51.1° - - -
2/27 6:10pm 189 17 G 26 56° 94% - - 54° 57° 51.1° - - -
2/27 6:00pm 187 16 G 25 56° 94% - - 54° 57° 51.1° - - -
2/27 5:50pm 190 14 G 24 56° 94% - - 54° 57° 51.1° - - -
2/27 5:40pm 188 14 G 23 56° 93% - - 54° 57° 51.1° - - -
2/27 5:30pm 183 16 G 25 56° 93% - - 54° 57° 51.1° - - -
2/27 5:20pm 186 14 G 21 56° 94% - - 54° 57° 51.1° - - -
2/27 5:10pm 185 14 G 23 56° 94% - - 54° 57° 51.1° - - -
2/27 5:00pm 189 16 G 25 56° 94% - - 54° 57° 51.1° - - -
2/27 4:50pm 186 14 G 27 56° 94% - - 54° 57° 51.1° - - -
2/27 4:40pm 191 14 G 22 56° 94% - - 54° 57° 51.1° - - -
2/27 4:30pm 190 15 G 25 56° 94% - - 54° 57° 51.1° - - -
2/27 4:20pm 194 14 G 22 56° 94% - - 55° 57° 51.1° - - -
2/27 4:10pm 192 14 G 25 56° 94% - - 55° 57° 51.1° - - -
2/27 4:00pm 192 15 G 26 56° 94% - - 54° 57° 51.1° - - -
2/27 3:50pm 193 17 G 28 56° 94% - - 54° 57° 51.1° - - -
2/27 3:40pm 195 16 G 29 56° 94% - - 54° 57° 51.1° - - -
2/27 3:30pm 191 19 G 29 56° 94% - - 55° 57° 51.1° - - -
2/27 3:20pm 187 20 G 29 56° 95% - - 55° 57° 51.1° - - -
2/27 3:10pm 190 18 G 29 56° 95% - - 55° 57° 51.1° - - -
2/27 3:00pm 191 16 G 26 56° 95% - - 55° 57° 51.1° - - -
2/27 2:50pm 192 17 G 26 56° 95% - - 55° 57° 51.1° - - -
2/27 2:40pm 196 13 G 23 56° 94% - - 55° 57° 51.1° - - -
2/27 2:30pm 192 17 G 28 56° 95% - - 54° 57° 51.1° - - -
2/27 2:20pm 191 17 G 26 56° 95% - - 54° 57° 51.1° - - -
2/27 2:10pm 194 17 G 28 56° 95% - - 54° 57° 51.1° - - -
2/27 2:00pm 194 17 G 26 55° 95% - - 54° 57° 51.1° - - -
2/27 1:50pm 194 18 G 28 55° 94% - - 54° 57° 51.1° - - -
2/27 1:40pm 198 17 G 27 55° 94% - - 53° 57° 51.1° - - -
2/27 1:30pm 196 18 G 30 55° 94% - - 53° 57° 51.1° - - -
2/27 1:20pm 194 19 G 32 55° 94% - - 54° 57° 51.1° - - -
2/27 1:10pm 193 18 G 28 56° 94% - - 54° 57° 51.1° - - -
2/27 1:00pm 191 20 G 30 56° 94% - - 54° 57° 51.1° - - -
2/27 12:50pm 195 20 G 31 55° 94% - - 54° 57° 51.1° - - -
2/27 12:40pm 189 20 G 29 55° 94% - - 54° 57° 51.1° - - -
2/27 12:30pm 192 22 G 32 55° 94% - - 53° 57° 51.1° - - -
2/27 12:20pm 194 20 G 32 55° 94% - - 53° 57° 51.1° - - -
2/27 12:10pm 193 20 G 30 55° 94% - - 53° 57° 51.1° - - -
2/27 12:00pm 196 19 G 29 55° 94% - - 53° 57° 51.1° - - -
2/27 11:50am 198 18 G 29 55° 94% - - 53° 57° 51.1° - - -
2/27 11:40am 198 19 G 37 55° 94% - - 54° 57° 51.1° - - -
2/27 11:30am 190 19 G 36 56° 95% - - 54° 57° 51.1° - - -
2/27 11:20am 195 19 G 30 56° 94% - - 54° 57° 51.1° - - -
2/27 11:10am 194 18 G 30 56° 94% - - 54° 57° 51.1° - - -
2/27 11:00am 192 20 G 30 55° 95% - - 54° 57° 51.1° - - -
2/27 10:50am 194 18 G 29 55° 94% - - 54° 57° 51.1° - - -
2/27 10:40am 196 16 G 26 55° 95% - - 54° 57° 51.1° - - -
2/27 10:30am 198 17 G 32 56° 95% - - 54° 57° 51.1° - - -
2/27 10:20am 200 19 G 30 56° 94% - - 54° 57° 51.1° - - -
2/27 10:10am 199 17 G 28 56° 95% - - 54° 57° 51.1° - - -
2/27 10:00am 201 17 G 30 56° 95% - - 54° 57° 51.1° - - -
2/27 9:50am 208 16 G 27 56° 95% - - 54° 57° 51.1° - - -
2/27 9:40am 204 15 G 28 56° 95% - - 55° 57° 51.1° - - -
2/27 9:30am 210 12 G 22 56° 95% - - 55° 57° 51.1° - - -
2/27 9:20am 205 12 G 21 56° 95% - - 55° 57° 51.1° - - -
2/27 9:10am 198 13 G 27 56° 94% - - 55° 57° 51.1° - - -
2/27 9:00am 204 12 G 20 56° 94% - - 55° 57° 51.1° - - -
2/27 8:50am 196 15 G 24 57° 93% - - 55° 57° 51.1° - - -
2/27 8:40am 197 15 G 26 56° 93% - - 55° 56.9° 51.1° - - -
2/27 8:30am 191 22 G 38 56° 94% - - 54° 56.8° 51.1° - - -
2/27 8:20am 193 20 G 32 56° 94% - - 54° 56.8° 51.1° - - -
2/27 8:10am 203 15 G 26 56° 94% - - 55° 56.8° 51.1° - - -
2/27 8:00am 201 14 G 24 56° 95% - - 55° 56.8° 51.1° - - -
2/27 7:50am 200 14 G 23 56° 95% - - 55° 56.8° 51.1° - - -
2/27 7:40am 200 14 G 25 56° 95% - - 55° 56.8° 51.1° - - -
2/27 7:30am 202 14 G 23 56° 95% - - 55° 56.8° 51.1° - - -
2/27 7:20am 199 16 G 24 56° 95% - - 55° 56.8° 51.1° - - -
2/27 7:10am 198 13 G 24 56° 95% - - 55° 56.8° 51.1° - - -
2/27 7:00am 200 14 G 25 56° 95% - - 55° 56.8° 51.1° - - -
2/27 6:50am 198 13 G 23 56° 95% - - 55° 56.8° 51.1° - - -
2/27 6:40am 199 12 G 24 56° 95% - - 55° 56.8° 51.1° - - -
2/27 6:30am 200 14 G 21 56° 95% - - 55° 56.8° 51.1° - - -
2/27 6:20am 198 14 G 22 56° 95% - - 55° 56.8° 51.1° - - -
2/27 6:10am 198 16 G 26 56° 95% - - 55° 56.8° 51.1° - - -
2/27 6:00am 196 17 G 28 56° 95% - - 55° 56.8° 51.1° - - -
2/27 5:50am 195 16 G 27 56° 95% - - 55° 56.8° 51.1° - - -
2/27 5:40am 193 16 G 27 56° 95% - - 55° 56.8° 51.1° - - -
2/27 5:30am 198 14 G 28 56° 95% - - 55° 56.8° 51.1° - - -
2/27 5:20am 195 16 G 26 56° 95% - - 55° 56.8° 51.1° - - -
2/27 5:10am 192 17 G 27 56° 95% - - 55° 56.8° 51.1° - - -
2/27 5:00am 195 15 G 26 56° 95% - - 55° 56.8° 51.1° - - -
2/27 4:50am 199 12 G 19 56° 96% - - 55° 56.8° 51.1° - - -
2/27 4:40am 200 16 G 31 56° 96% - - 55° 56.8° 51.1° - - -
2/27 4:30am 204 14 G 25 56° 96% - - 55° 56.8° 51.1° - - -
2/27 4:20am 201 14 G 22 56° 96% - - 55° 56.8° 51.1° - - -
2/27 4:10am 200 13 G 22 56° 96% - - 55° 56.7° 51.1° - - -
2/27 4:00am 202 12 G 21 56° 96% - - 55° 56.7° 51.1° - - -
2/27 3:50am 191 13 G 21 56° 96% - - 54° 56° 51.1° - - -
2/27 3:40am 189 13 G 22 55° 96% - - 54° 56° 51.1° - - -
2/27 3:30am 186 13 G 20 55° 96% - - 54° 55.6° 51.1° - - -
2/27 3:20am 182 13 G 21 55° 96% - - 54° 55.5° 51.1° - - -
2/27 3:10am 171 13 G 20 55° 97% - - 54° 55.5° 51.1° - - -
2/27 3:00am 170 8 G 14 55° 97% - - 54° 55.3° 51.1° - - -
2/27 2:50am 157 8 G 14 54° 97% - - 54° 55° 51.1° - - -
2/27 2:40am 144 5 G 11 53° 97% - - 52° 54.6° 51.1° - - -
2/27 2:30am 115 5 G 7 52° 97% - - 51° 52.6° 51.1° - - -
2/27 2:20am 106 6 G 8 52° 97% - - 51° 52.4° 51.1° - - -
2/27 2:10am 98 6 G 8 52° 97% - - 51° 52.3° 51.1° - - -
2/27 2:00am 99 6 G 9 52° 97% - - 51° 52.2° 51.1° - - -
2/27 1:50am 92 6 G 8 52° 97% - - 51° 52.2° 51.1° - - -
2/27 1:40am 90 6 G 8 52° 97% - - 51° 52.2° 51.1° - - -
2/27 1:30am 84 6 G 9 51° 96% - - 51° 52.2° 51.1° - - -
2/27 1:20am 91 6 G 8 51° 96% - - 50° 52.2° 51.1° - - -
2/27 1:10am 91 6 G 8 52° 96% - - 50° 52.2° 51.1° - - -
2/27 1:00am 93 6 G 8 51° 96% - - 50° 52.2° 51.1° - - -
2/27 12:50am 84 5 G 7 51° 96% - - 50° 52.2° 51.1° - - -
2/27 12:40am 93 5 G 8 51° 96% - - 50° 52.2° 51.1° - - -
2/27 12:30am 90 5 G 6 52° 96% - - 51° 52.2° 51.3° - - -
2/27 12:20am 94 4 G 5 52° 96% - - 51° 52.2° 51.5° - - -
2/27 12:10am 95 3 G 4 52° 96% - - 51° 52.2° 51.5° - - -
2/27 12:00am 84 3 G 4 52° 96% - - 51° 57.1° 49.4° - - -
2/26 11:50pm 91 2 G 3 52° 96% - - 51° 57.1° 49.4° - - -
2/26 11:40pm 111 2 G 3 52° 96% - - 51° 57.1° 49.4° - - -
2/26 11:30pm 123 2 G 3 52° 96% - - 51° 57.1° 49.4° - - -
2/26 11:20pm 148 2 G 3 52° 95% - - 51° 57.1° 49.4° - - -
2/26 11:10pm 178 0 G 2 52° 95% - - 51° 57.1° 49.4° - - -
2/26 11:00pm 214 2 G 4 52° 95% - - 51° 57.1° 49.4° - - -
2/26 10:50pm 238 4 G 6 52° 95% - - 50° 57.1° 49.4° - - -
2/26 10:40pm 239 5 G 7 52° 94% - - 50° 57.1° 49.4° - - -
2/26 10:30pm 230 5 G 7 52° 92% - - 50° 57.1° 49.4° - - -
2/26 10:20pm 236 6 G 9 53° 89% - - 50° 57.1° 49.4° - - -
2/26 10:10pm 236 7 G 10 53° 88% - - 49° 57.1° 49.4° - - -
2/26 10:00pm 233 5 G 7 53° 87% - - 49° 57.1° 49.4° - - -
2/26 9:50pm 239 5 G 7 53° 86% - - 49° 57.1° 49.4° - - -
2/26 9:40pm 232 5 G 8 53° 86% - - 49° 57.1° 49.4° - - -
2/26 9:30pm 231 5 G 8 53° 86% - - 49° 57.1° 49.4° - - -
2/26 9:20pm 227 6 G 10 53° 87% - - 49° 57.1° 49.4° - - -
2/26 9:10pm 229 7 G 11 53° 88% - - 50° 57.1° 49.4° - - -
2/26 9:00pm 215 5 G 8 53° 89% - - 50° 57.1° 49.4° - - -
2/26 8:50pm 208 4 G 8 53° 91% - - 50° 57.1° 49.4° - - -
2/26 8:40pm 205 5 G 8 53° 91% - - 51° 57.1° 49.4° - - -
2/26 8:30pm 215 6 G 9 53° 91% - - 50° 57.1° 49.4° - - -
2/26 8:20pm 222 7 G 12 53° 91% - - 50° 57.1° 49.4° - - -
2/26 8:10pm 222 6 G 10 53° 91% - - 50° 57.1° 49.4° - - -
2/26 8:00pm 219 6 G 12 53° 91% - - 50° 57.1° 49.4° - - -
2/26 7:50pm 225 8 G 13 53° 92% - - 51° 57.1° 49.4° - - -
2/26 7:40pm 213 8 G 13 53° 92% - - 51° 57.1° 49.4° - - -
2/26 7:30pm 213 6 G 11 53° 91% - - 51° 57.1° 49.4° - - -
2/26 7:20pm 216 4 G 6 53° 90% - - 50° 57.1° 49.4° - - -
2/26 7:10pm 214 4 G 6 53° 90% - - 50° 57.1° 49.4° - - -
2/26 7:00pm 217 4 G 7 53° 91% - - 50° 57.1° 49.4° - - -
2/26 6:50pm 214 4 G 7 53° 91% - - 50° 57.1° 49.4° - - -
2/26 6:40pm 215 5 G 8 53° 91% - - 50° 57.1° 49.4° - - -
2/26 6:30pm 214 5 G 8 53° 89% - - 50° 57.1° 49.4° - - -
2/26 6:20pm 205 5 G 8 53° 89% - - 50° 57.1° 49.4° - - -
2/26 6:10pm 205 5 G 8 53° 88% - - 50° 57.1° 49.4° - - -
2/26 6:00pm 203 6 G 10 53° 89% - - 50° 57.1° 49.4° - - -
2/26 5:50pm 198 8 G 12 53° 89% - - 50° 57.1° 49.4° - - -
2/26 5:40pm 203 6 G 11 54° 88% - - 50° 57.1° 49.4° - - -
2/26 5:30pm 196 8 G 15 54° 87% - - 50° 57.1° 49.4° - - -
2/26 5:20pm 202 7 G 12 54° 87% - - 50° 57.1° 49.4° - - -
2/26 5:10pm 199 8 G 14 54° 87% - - 50° 57.1° 49.4° - - -
2/26 5:00pm 196 8 G 14 54° 87% - - 51° 57.1° 49.4° - - -